Friday, June 15, 2018 at 6:30 a.m.

AVIATION AREA FORECAST

SIGNIFICANT FEATURE……… A High Pressure Ridge across Jamaica.

Comment….... The High Pressure Ridge is expected to remain across the island until tonight. Thereafter, a Trough will become the significant feature.


24-HOUR FORECAST
This Morning… Mainly sunny and hazy.
This Afternoon … Partly cloudy and hazy with windy conditions along coastal areas of the island.
Tonight... Mainly fair.


CLOUDS GENERALLY ACROSS THE ISLAND:
This Morning... FEW022
This Afternoon… FEW020 FEW022CB


WINDS AND TEMPERATURES

Flight 20N 80W 20N 75W
Levels WIND/TEMP WIND/TEMP
450 29033KT/-69 30015KT/-69
390 31035KT/-54 30010KT/-55
340 32029KT/-41 30008KT/-23
300 33201KT/-30 29008KT/-32
240 15008KT/-16 14000KT/-16
180 12015KT/-05 11008KT/-05
100 11012KT/08 06012KT/08
50 12019KT/19 09012KT/20

Flight 15N 80W 15N 75W
Levels WIND/TEMP WIND/TEMP
450 28031KT/-69 28033KT/-68
390 31021KT/-53 29021KT/-54
340 02015KT/-41 31014KT/-41
300 03014KT/-30 36668KT/-31
240 11012KT/-15 07008KT/-15
180 10015KT/-04 11012KT/-04
100 11027KT/10 10017KT/10
50 12033KT/19 10027KT/20


AERODROME FORECAST
TAF MKJP 151115Z 1512/1612 13022KT 9999 FEW022
BECMG 1602/1604 11012KT=

TAF MKJS 151115Z 1512/1612 11005KT 9999 FEW022
BECMG 1514/1516 07018KT FEW020 FEW022CB
BECMG 1600/1602 15005KT FEW022=

TCR/NRS